Time,TemperatureF,DewpointF,PressureIn,WindDirection,WindDirectionDegrees,WindSpeedMPH,WindSpeedGustMPH,Humidity,HourlyPrecipIn,Conditions,Clouds,dailyrainin,SoftwareType,DateUTC
2013-08-01 00:04:00,58.1,57.2,29.78,ENE,67,4.0,10.0,97,0.00,,,0.04,meteohub,2013-07-31 23:04:00,
2013-08-01 00:10:00,58.1,57.2,29.78,ENE,67,7.0,10.0,97,0.01,,,0.01,meteohub,2013-07-31 23:10:00,
2013-08-01 00:15:00,58.1,57.2,29.78,East,90,5.0,10.0,97,0.02,,,0.02,meteohub,2013-07-31 23:15:00,
2013-08-01 00:20:00,58.1,57.2,29.78,SE,135,6.0,9.0,97,0.03,,,0.03,meteohub,2013-07-31 23:20:00,
2013-08-01 00:25:00,58.1,57.2,29.78,East,90,7.0,8.0,97,0.03,,,0.03,meteohub,2013-07-31 23:25:00,
2013-08-01 00:30:00,58.1,57.2,29.78,East,90,2.0,8.0,97,0.03,,,0.03,meteohub,2013-07-31 23:30:00,
2013-08-01 00:36:00,58.1,57.2,29.78,East,90,4.0,8.0,97,0.03,,,0.03,meteohub,2013-07-31 23:36:00,
2013-08-01 00:41:00,58.1,57.2,29.75,East,90,5.0,9.0,97,0.03,,,0.03,meteohub,2013-07-31 23:41:00,
2013-08-01 00:46:00,58.1,57.2,29.75,ESE,112,6.0,9.0,97,0.03,,,0.03,meteohub,2013-07-31 23:46:00,
2013-08-01 00:51:00,58.1,57.2,29.75,East,90,2.0,9.0,97,0.03,,,0.03,meteohub,2013-07-31 23:51:00,
2013-08-01 00:57:00,58.1,57.2,29.75,East,90,5.0,8.0,97,0.03,,,0.03,meteohub,2013-07-31 23:57:00,
2013-08-01 01:02:00,58.1,57.2,29.75,East,90,9.0,9.0,97,0.03,,,0.03,meteohub,2013-08-01 00:02:00,
2013-08-01 01:07:00,58.1,57.2,29.75,NNE,22,8.0,9.0,97,0.02,,,0.03,meteohub,2013-08-01 00:07:00,
2013-08-01 01:12:00,58.1,57.2,29.75,East,90,8.0,9.0,97,0.02,,,0.03,meteohub,2013-08-01 00:12:00,
2013-08-01 01:17:00,57.9,57.0,29.75,East,90,6.0,10.0,97,0.01,,,0.03,meteohub,2013-08-01 00:17:00,
2013-08-01 01:22:00,57.9,57.4,29.75,ESE,112,11.0,13.0,98,0.02,,,0.04,meteohub,2013-08-01 00:22:00,
2013-08-01 01:27:00,57.9,57.4,29.75,East,90,7.0,15.0,98,0.03,,,0.05,meteohub,2013-08-01 00:27:00,
2013-08-01 01:32:00,57.9,57.4,29.75,ESE,112,13.0,15.0,98,0.04,,,0.06,meteohub,2013-08-01 00:32:00,
2013-08-01 01:37:00,57.7,57.2,29.75,East,90,10.0,15.0,98,0.04,,,0.07,meteohub,2013-08-01 00:37:00,
2013-08-01 01:43:00,57.7,56.8,29.75,ESE,112,10.0,17.0,97,0.04,,,0.07,meteohub,2013-08-01 00:43:00,
2013-08-01 01:48:00,57.7,57.2,29.75,SSE,157,9.0,17.0,98,0.04,,,0.07,meteohub,2013-08-01 00:48:00,
2013-08-01 01:53:00,57.7,57.2,29.72,East,90,8.0,17.0,98,0.05,,,0.07,meteohub,2013-08-01 00:53:00,
2013-08-01 01:58:00,57.7,57.2,29.72,East,90,10.0,16.0,98,0.07,,,0.09,meteohub,2013-08-01 00:58:00,
2013-08-01 02:04:00,57.6,57.0,29.72,ENE,67,7.0,16.0,98,0.07,,,0.10,meteohub,2013-08-01 01:04:00,
2013-08-01 02:09:00,57.6,57.0,29.72,ESE,112,8.0,16.0,98,0.08,,,0.10,meteohub,2013-08-01 01:09:00,
2013-08-01 02:14:00,57.6,57.0,29.72,ENE,67,6.0,14.0,98,0.08,,,0.11,meteohub,2013-08-01 01:14:00,
2013-08-01 02:19:00,57.6,57.0,29.72,East,90,8.0,14.0,98,0.08,,,0.11,meteohub,2013-08-01 01:19:00,
2013-08-01 02:24:00,57.6,57.0,29.72,East,90,6.0,11.0,98,0.07,,,0.11,meteohub,2013-08-01 01:24:00,
2013-08-01 02:29:00,57.6,57.0,29.72,ESE,112,10.0,11.0,98,0.07,,,0.12,meteohub,2013-08-01 01:29:00,
2013-08-01 02:34:00,57.6,57.0,29.72,ESE,112,6.0,13.0,98,0.06,,,0.12,meteohub,2013-08-01 01:34:00,
2013-08-01 02:40:00,57.6,57.0,29.72,East,90,10.0,13.0,98,0.06,,,0.13,meteohub,2013-08-01 01:40:00,
2013-08-01 02:45:00,57.6,57.0,29.72,ENE,67,4.0,12.0,98,0.07,,,0.14,meteohub,2013-08-01 01:45:00,
2013-08-01 02:50:00,57.6,57.0,29.72,ESE,112,11.0,12.0,98,0.06,,,0.14,meteohub,2013-08-01 01:50:00,
2013-08-01 02:55:00,57.6,57.0,29.72,East,90,6.0,11.0,98,0.04,,,0.14,meteohub,2013-08-01 01:55:00,
2013-08-01 03:00:00,57.6,57.0,29.72,East,90,6.0,11.0,98,0.04,,,0.15,meteohub,2013-08-01 02:00:00,
2013-08-01 03:05:00,57.6,57.0,29.72,East,90,6.0,11.0,98,0.04,,,0.15,meteohub,2013-08-01 02:05:00,
2013-08-01 03:10:00,57.6,57.0,29.72,ENE,67,5.0,10.0,98,0.04,,,0.15,meteohub,2013-08-01 02:10:00,
2013-08-01 03:16:00,57.6,57.0,29.72,ESE,112,10.0,10.0,98,0.03,,,0.15,meteohub,2013-08-01 02:16:00,
2013-08-01 03:21:00,57.6,57.0,29.72,East,90,5.0,10.0,98,0.03,,,0.15,meteohub,2013-08-01 02:21:00,
2013-08-01 03:26:00,57.7,57.2,29.72,East,90,4.0,10.0,98,0.03,,,0.15,meteohub,2013-08-01 02:26:00,
2013-08-01 03:31:00,57.7,57.2,29.72,East,90,5.0,10.0,98,0.02,,,0.15,meteohub,2013-08-01 02:31:00,
2013-08-01 03:36:00,57.7,57.2,29.72,NE,45,4.0,8.0,98,0.02,,,0.15,meteohub,2013-08-01 02:36:00,
2013-08-01 03:41:00,57.9,57.4,29.72,East,90,3.0,8.0,98,0.01,,,0.15,meteohub,2013-08-01 02:41:00,
2013-08-01 03:46:00,57.7,57.2,29.72,East,90,5.0,8.0,98,0.00,,,0.15,meteohub,2013-08-01 02:46:00,
2013-08-01 03:52:00,57.7,57.2,29.72,NE,45,6.0,6.0,98,0.01,,,0.15,meteohub,2013-08-01 02:52:00,
2013-08-01 03:57:00,57.7,57.2,29.72,East,90,4.0,6.0,98,0.00,,,0.15,meteohub,2013-08-01 02:57:00,
2013-08-01 04:02:00,57.7,57.2,29.72,East,90,3.0,6.0,98,0.02,,,0.16,meteohub,2013-08-01 03:02:00,
2013-08-01 04:07:00,57.9,57.4,29.69,East,90,4.0,6.0,98,0.02,,,0.16,meteohub,2013-08-01 03:07:00,
2013-08-01 04:12:00,57.9,57.4,29.69,ENE,67,6.0,6.0,98,0.02,,,0.16,meteohub,2013-08-01 03:12:00,
2013-08-01 04:17:00,57.9,57.4,29.69,SE,135,3.0,8.0,98,0.02,,,0.16,meteohub,2013-08-01 03:17:00,
2013-08-01 04:22:00,57.9,57.4,29.69,East,90,5.0,8.0,98,0.02,,,0.16,meteohub,2013-08-01 03:22:00,
2013-08-01 04:27:00,57.9,57.4,29.69,East,90,4.0,8.0,98,0.02,,,0.16,meteohub,2013-08-01 03:27:00,
2013-08-01 04:33:00,57.9,57.4,29.69,East,90,5.0,6.0,98,0.02,,,0.16,meteohub,2013-08-01 03:33:00,
2013-08-01 04:38:00,57.9,57.4,29.69,East,90,4.0,6.0,98,0.02,,,0.16,meteohub,2013-08-01 03:38:00,
2013-08-01 04:43:00,57.9,57.4,29.69,ENE,67,3.0,6.0,98,0.02,,,0.17,meteohub,2013-08-01 03:43:00,
2013-08-01 04:48:00,57.9,57.4,29.69,East,90,5.0,5.0,98,0.02,,,0.17,meteohub,2013-08-01 03:48:00,
2013-08-01 04:54:00,57.9,57.4,29.69,East,90,4.0,6.0,98,0.02,,,0.17,meteohub,2013-08-01 03:54:00,
2013-08-01 04:59:00,58.1,57.6,29.69,East,90,3.0,6.0,98,0.00,,,0.17,meteohub,2013-08-01 03:59:00,
2013-08-01 05:02:00,58.1,57.6,29.69,East,90,3.0,6.0,98,0.01,,,0.17,meteohub,2013-08-01 04:02:00,
2013-08-01 05:03:00,58.1,57.6,29.69,SE,135,4.0,6.0,98,0.01,,,0.17,meteohub,2013-08-01 04:03:00,
2013-08-01 05:04:00,58.1,57.6,29.69,East,90,2.0,6.0,98,0.01,,,0.17,meteohub,2013-08-01 04:04:00,
2013-08-01 05:05:00,58.1,57.6,29.69,East,90,3.0,5.0,98,0.02,,,0.17,meteohub,2013-08-01 04:05:00,
2013-08-01 05:11:00,58.1,57.6,29.69,East,90,3.0,5.0,98,0.04,,,0.20,meteohub,2013-08-01 04:11:00,
2013-08-01 05:16:00,58.1,57.6,29.69,East,90,2.0,4.0,98,0.06,,,0.22,meteohub,2013-08-01 04:16:00,
2013-08-01 05:21:00,58.1,57.6,29.69,ESE,112,1.0,4.0,98,0.07,,,0.22,meteohub,2013-08-01 04:21:00,
2013-08-01 05:26:00,58.3,57.7,29.69,ESE,112,2.0,4.0,98,0.08,,,0.24,meteohub,2013-08-01 04:26:00,
2013-08-01 05:31:00,58.3,57.7,29.69,East,90,2.0,3.0,98,0.09,,,0.25,meteohub,2013-08-01 04:31:00,
2013-08-01 05:37:00,58.3,57.7,29.69,East,90,2.0,3.0,98,0.09,,,0.25,meteohub,2013-08-01 04:37:00,
2013-08-01 05:42:00,58.3,57.7,29.69,East,90,1.0,3.0,98,0.10,,,0.27,meteohub,2013-08-01 04:42:00,
2013-08-01 05:47:00,58.5,57.9,29.69,ESE,112,1.0,3.0,98,0.12,,,0.29,meteohub,2013-08-01 04:47:00,
2013-08-01 05:52:00,58.5,57.9,29.69,ESE,112,2.0,3.0,98,0.14,,,0.30,meteohub,2013-08-01 04:52:00,
2013-08-01 05:57:00,58.5,57.9,29.69,East,90,2.0,4.0,98,0.15,,,0.31,meteohub,2013-08-01 04:57:00,
2013-08-01 06:02:00,58.5,57.9,29.69,East,90,2.0,4.0,98,0.15,,,0.32,meteohub,2013-08-01 05:02:00,
2013-08-01 06:07:00,58.5,57.9,29.69,ESE,112,2.0,4.0,98,0.15,,,0.33,meteohub,2013-08-01 05:07:00,
2013-08-01 06:13:00,58.5,57.9,29.69,East,90,2.0,4.0,98,0.13,,,0.33,meteohub,2013-08-01 05:13:00,
2013-08-01 06:18:00,58.6,58.1,29.69,ENE,67,2.0,4.0,98,0.13,,,0.34,meteohub,2013-08-01 05:18:00,
2013-08-01 06:23:00,58.6,58.1,29.69,ENE,67,1.0,4.0,98,0.12,,,0.35,meteohub,2013-08-01 05:23:00,
2013-08-01 06:28:00,58.6,58.1,29.69,ENE,67,2.0,4.0,98,0.12,,,0.36,meteohub,2013-08-01 05:28:00,
2013-08-01 06:33:00,58.6,58.1,29.69,NE,45,2.0,4.0,98,0.11,,,0.36,meteohub,2013-08-01 05:33:00,
2013-08-01 06:38:00,58.6,58.1,29.69,East,90,2.0,4.0,98,0.10,,,0.36,meteohub,2013-08-01 05:38:00,
2013-08-01 06:43:00,58.6,58.1,29.69,ENE,67,0.0,4.0,98,0.09,,,0.36,meteohub,2013-08-01 05:43:00,
2013-08-01 06:48:00,58.8,58.3,29.69,ENE,67,3.0,3.0,98,0.07,,,0.37,meteohub,2013-08-01 05:48:00,
2013-08-01 06:54:00,58.8,58.3,29.69,East,90,2.0,4.0,98,0.06,,,0.37,meteohub,2013-08-01 05:54:00,
2013-08-01 06:59:00,58.8,58.3,29.69,East,90,2.0,4.0,98,0.05,,,0.37,meteohub,2013-08-01 05:59:00,
2013-08-01 07:04:00,59.0,58.5,29.69,East,90,1.0,4.0,98,0.04,,,0.37,meteohub,2013-08-01 06:04:00,
2013-08-01 07:09:00,59.0,58.5,29.69,ENE,67,1.0,4.0,98,0.03,,,0.37,meteohub,2013-08-01 06:09:00,
2013-08-01 07:14:00,59.0,58.5,29.69,NE,45,2.0,3.0,98,0.03,,,0.37,meteohub,2013-08-01 06:14:00,
2013-08-01 07:19:00,59.2,58.6,29.69,East,90,0.0,3.0,98,0.02,,,0.37,meteohub,2013-08-01 06:19:00,
2013-08-01 07:25:00,59.4,58.8,29.69,East,90,1.0,3.0,98,0.01,,,0.37,meteohub,2013-08-01 06:25:00,
2013-08-01 07:30:00,59.4,58.8,29.69,East,90,2.0,3.0,98,0.01,,,0.37,meteohub,2013-08-01 06:30:00,
2013-08-01 07:35:00,59.5,59.0,29.69,East,90,0.0,3.0,98,0.01,,,0.37,meteohub,2013-08-01 06:35:00,
2013-08-01 07:40:00,59.7,59.2,29.69,East,90,2.0,3.0,98,0.00,,,0.37,meteohub,2013-08-01 06:40:00,
2013-08-01 07:46:00,59.7,59.2,29.69,ENE,67,2.0,3.0,98,0.01,,,0.37,meteohub,2013-08-01 06:46:00,
2013-08-01 07:51:00,59.9,59.4,29.69,East,90,2.0,3.0,98,0.01,,,0.37,meteohub,2013-08-01 06:51:00,
2013-08-01 07:56:00,60.1,59.5,29.69,ENE,67,3.0,3.0,98,0.02,,,0.38,meteohub,2013-08-01 06:56:00,
2013-08-01 08:01:00,60.1,59.5,29.69,ENE,67,3.0,4.0,98,0.02,,,0.39,meteohub,2013-08-01 07:01:00,
2013-08-01 08:06:00,60.1,59.5,29.69,ENE,67,3.0,4.0,98,0.02,,,0.39,meteohub,2013-08-01 07:06:00,
2013-08-01 08:12:00,60.1,59.5,29.69,East,90,4.0,5.0,98,0.03,,,0.39,meteohub,2013-08-01 07:12:00,
2013-08-01 08:17:00,60.3,59.7,29.69,East,90,4.0,5.0,98,0.03,,,0.39,meteohub,2013-08-01 07:17:00,
2013-08-01 08:22:00,60.4,59.9,29.69,East,90,2.0,5.0,98,0.02,,,0.39,meteohub,2013-08-01 07:22:00,
2013-08-01 08:27:00,60.4,59.9,29.69,East,90,4.0,5.0,98,0.02,,,0.39,meteohub,2013-08-01 07:27:00,
2013-08-01 08:32:00,60.6,60.1,29.69,East,90,5.0,5.0,98,0.02,,,0.39,meteohub,2013-08-01 07:32:00,
2013-08-01 08:37:00,60.8,60.3,29.69,East,90,3.0,6.0,98,0.02,,,0.39,meteohub,2013-08-01 07:37:00,
2013-08-01 08:42:00,60.8,60.3,29.69,East,90,4.0,6.0,98,0.02,,,0.39,meteohub,2013-08-01 07:42:00,
2013-08-01 08:47:00,61.0,60.4,29.69,East,90,6.0,6.0,98,0.02,,,0.39,meteohub,2013-08-01 07:47:00,
2013-08-01 08:52:00,61.5,61.0,29.69,East,90,4.0,6.0,98,0.02,,,0.39,meteohub,2013-08-01 07:52:00,
2013-08-01 08:57:00,61.7,61.2,29.69,ESE,112,4.0,6.0,98,0.01,,,0.39,meteohub,2013-08-01 07:57:00,
2013-08-01 09:02:00,61.9,61.3,29.69,East,90,3.0,6.0,98,0.00,,,0.39,meteohub,2013-08-01 08:02:00,
2013-08-01 09:08:00,61.9,61.3,29.69,East,90,5.0,8.0,98,0.00,,,0.39,meteohub,2013-08-01 08:08:00,
2013-08-01 09:13:00,61.9,61.3,29.69,SE,135,3.0,8.0,98,0.00,,,0.39,meteohub,2013-08-01 08:13:00,
2013-08-01 09:21:00,61.9,61.3,29.69,East,90,7.0,8.0,98,0.00,,,0.39,meteohub,2013-08-01 08:21:00,
2013-08-01 09:27:00,61.9,61.3,29.69,ESE,112,4.0,9.0,98,0.00,,,0.39,meteohub,2013-08-01 08:27:00,
2013-08-01 09:32:00,61.7,61.2,29.69,ESE,112,6.0,9.0,98,0.00,,,0.39,meteohub,2013-08-01 08:32:00,
2013-08-01 09:37:00,61.7,61.2,29.69,ESE,112,4.0,9.0,98,0.00,,,0.39,meteohub,2013-08-01 08:37:00,
2013-08-01 09:43:00,61.7,61.2,29.69,ESE,112,8.0,9.0,98,0.01,,,0.40,meteohub,2013-08-01 08:43:00,
2013-08-01 09:49:00,61.7,61.2,29.69,SE,135,7.0,9.0,98,0.02,,,0.41,meteohub,2013-08-01 08:49:00,
2013-08-01 09:58:00,61.9,61.3,29.69,ESE,112,5.0,10.0,98,0.02,,,0.41,meteohub,2013-08-01 08:58:00,
2013-08-01 10:07:00,62.2,61.7,29.69,ESE,112,5.0,10.0,98,0.02,,,0.41,meteohub,2013-08-01 09:07:00,
2013-08-01 10:12:00,62.4,61.9,29.69,ESE,112,6.0,10.0,98,0.02,,,0.41,meteohub,2013-08-01 09:12:00,
2013-08-01 10:18:00,62.6,62.1,29.69,SE,135,5.0,10.0,98,0.02,,,0.41,meteohub,2013-08-01 09:18:00,
2013-08-01 10:25:00,62.6,62.1,29.69,East,90,6.0,10.0,98,0.02,,,0.41,meteohub,2013-08-01 09:25:00,
2013-08-01 10:32:00,63.0,62.4,29.69,East,90,8.0,10.0,98,0.02,,,0.41,meteohub,2013-08-01 09:32:00,
2013-08-01 10:37:00,63.1,62.6,29.69,ESE,112,7.0,9.0,98,0.01,,,0.41,meteohub,2013-08-01 09:37:00,
2013-08-01 10:42:00,63.5,63.0,29.69,SE,135,6.0,10.0,98,0.00,,,0.41,meteohub,2013-08-01 09:42:00,
2013-08-01 10:48:00,63.5,63.0,29.69,SE,135,8.0,10.0,98,0.00,,,0.41,meteohub,2013-08-01 09:48:00,
2013-08-01 10:54:00,63.9,63.3,29.69,East,90,4.0,10.0,98,0.00,,,0.41,meteohub,2013-08-01 09:54:00,
2013-08-01 11:02:00,64.4,63.9,29.69,SSW,202,6.0,8.0,98,0.00,,,0.41,meteohub,2013-08-01 10:02:00,
2013-08-01 11:07:00,64.4,63.9,29.69,SSW,202,6.0,12.0,98,0.00,,,0.41,meteohub,2013-08-01 10:07:00,
2013-08-01 11:15:00,64.6,64.0,29.69,SSW,202,5.0,12.0,98,0.00,,,0.41,meteohub,2013-08-01 10:15:00,
2013-08-01 11:22:00,64.8,64.2,29.69,South,180,5.0,11.0,98,0.00,,,0.41,meteohub,2013-08-01 10:22:00,
2013-08-01 11:32:00,64.8,63.9,29.69,SSW,202,5.0,11.0,97,0.00,,,0.41,meteohub,2013-08-01 10:32:00,
2013-08-01 11:39:00,64.8,63.9,29.69,SSW,202,6.0,10.0,97,0.00,,,0.41,meteohub,2013-08-01 10:39:00,
2013-08-01 11:47:00,64.9,64.0,29.69,SSW,202,6.0,9.0,97,0.00,,,0.41,meteohub,2013-08-01 10:47:00,
2013-08-01 11:52:00,64.9,64.0,29.69,South,180,4.0,10.0,97,0.00,,,0.41,meteohub,2013-08-01 10:52:00,
2013-08-01 11:57:00,64.9,64.0,29.69,SSW,202,5.0,10.0,97,0.00,,,0.41,meteohub,2013-08-01 10:57:00,
2013-08-01 12:02:00,64.9,63.9,29.69,South,180,4.0,10.0,96,0.00,,,0.41,meteohub,2013-08-01 11:02:00,
2013-08-01 12:07:00,64.8,63.7,29.69,SSW,202,3.0,10.0,96,0.00,,,0.41,meteohub,2013-08-01 11:07:00,
2013-08-01 12:12:00,64.9,63.9,29.69,South,180,6.0,10.0,96,0.00,,,0.41,meteohub,2013-08-01 11:12:00,
2013-08-01 12:17:00,64.8,63.7,29.69,SSW,202,10.0,11.0,96,0.00,,,0.41,meteohub,2013-08-01 11:17:00,
2013-08-01 12:22:00,64.8,63.7,29.69,SSW,202,10.0,12.0,96,0.00,,,0.41,meteohub,2013-08-01 11:22:00,
2013-08-01 12:27:00,64.8,63.7,29.69,South,180,9.0,12.0,96,0.00,,,0.41,meteohub,2013-08-01 11:27:00,
2013-08-01 12:32:00,64.9,63.9,29.69,SW,225,10.0,13.0,96,0.00,,,0.41,meteohub,2013-08-01 11:32:00,
2013-08-01 12:37:00,65.1,64.0,29.69,SSW,202,9.0,15.0,96,0.00,,,0.41,meteohub,2013-08-01 11:37:00,
2013-08-01 12:42:00,65.5,64.2,29.69,WSW,247,6.0,15.0,96,0.00,,,0.41,meteohub,2013-08-01 11:42:00,
2013-08-01 12:47:00,65.5,64.2,29.69,SW,225,4.0,15.0,96,0.00,,,0.41,meteohub,2013-08-01 11:47:00,
2013-08-01 12:52:00,65.7,64.4,29.69,WSW,247,6.0,13.0,96,0.00,,,0.41,meteohub,2013-08-01 11:52:00,
2013-08-01 12:57:00,65.7,64.4,29.69,SSW,202,9.0,13.0,96,0.00,,,0.41,meteohub,2013-08-01 11:57:00,
2013-08-01 13:02:00,65.8,64.6,29.69,South,180,7.0,13.0,96,0.00,,,0.41,meteohub,2013-08-01 12:02:00,
2013-08-01 13:08:00,65.8,64.6,29.69,SSW,202,6.0,11.0,96,0.00,,,0.41,meteohub,2013-08-01 12:08:00,
2013-08-01 13:13:00,66.4,64.9,29.69,SW,225,5.0,15.0,95,0.00,,,0.41,meteohub,2013-08-01 12:13:00,
2013-08-01 13:21:00,66.6,65.1,29.69,SW,225,6.0,15.0,95,0.00,,,0.41,meteohub,2013-08-01 12:21:00,
2013-08-01 13:29:00,66.6,64.4,29.69,SSW,202,5.0,13.0,93,0.00,,,0.41,meteohub,2013-08-01 12:29:00,
2013-08-01 13:35:00,66.6,64.8,29.69,SSW,202,5.0,13.0,94,0.00,,,0.41,meteohub,2013-08-01 12:35:00,
2013-08-01 13:42:00,66.9,64.8,29.69,SSW,202,13.0,13.0,93,0.00,,,0.41,meteohub,2013-08-01 12:42:00,
2013-08-01 13:48:00,67.1,64.9,29.69,South,180,6.0,13.0,93,0.00,,,0.41,meteohub,2013-08-01 12:48:00,
2013-08-01 13:55:00,67.6,65.5,29.69,SSW,202,9.0,13.0,93,0.00,,,0.41,meteohub,2013-08-01 12:55:00,
2013-08-01 14:01:00,67.8,65.5,29.69,SSE,157,6.0,12.0,92,0.00,,,0.41,meteohub,2013-08-01 13:01:00,
2013-08-01 14:06:00,67.8,65.5,29.69,SSW,202,6.0,12.0,92,0.00,,,0.41,meteohub,2013-08-01 13:06:00,
2013-08-01 14:14:00,68.0,64.9,29.69,SSW,202,10.0,13.0,90,0.00,,,0.41,meteohub,2013-08-01 13:14:00,
2013-08-01 14:22:00,67.6,64.6,29.69,SW,225,4.0,13.0,90,0.00,,,0.41,meteohub,2013-08-01 13:22:00,
2013-08-01 14:27:00,67.5,64.4,29.69,SSW,202,4.0,13.0,90,0.00,,,0.41,meteohub,2013-08-01 13:27:00,
2013-08-01 14:37:00,67.5,64.4,29.69,SSW,202,4.0,13.0,90,0.00,,,0.41,meteohub,2013-08-01 13:37:00,
2013-08-01 14:42:00,67.3,64.2,29.69,SSW,202,3.0,10.0,90,0.00,,,0.41,meteohub,2013-08-01 13:42:00,
2013-08-01 14:48:00,66.9,63.9,29.69,South,180,6.0,9.0,90,0.00,,,0.41,meteohub,2013-08-01 13:48:00,
2013-08-01 14:53:00,66.9,63.9,29.69,SW,225,4.0,9.0,90,0.00,,,0.41,meteohub,2013-08-01 13:53:00,
2013-08-01 14:59:00,66.7,63.7,29.69,SW,225,4.0,9.0,90,0.00,,,0.41,meteohub,2013-08-01 13:59:00,
2013-08-01 15:04:00,66.6,63.9,29.69,South,180,6.0,8.0,91,0.00,,,0.41,meteohub,2013-08-01 14:04:00,
2013-08-01 15:09:00,66.4,63.7,29.69,SSW,202,6.0,9.0,91,0.00,,,0.41,meteohub,2013-08-01 14:09:00,
2013-08-01 15:17:00,66.4,63.3,29.69,SSW,202,2.0,9.0,90,0.00,,,0.41,meteohub,2013-08-01 14:17:00,
2013-08-01 15:23:00,66.4,63.7,29.69,SW,225,1.0,9.0,91,0.00,,,0.41,meteohub,2013-08-01 14:23:00,
2013-08-01 15:30:00,66.6,63.9,29.69,South,180,3.0,8.0,91,0.00,,,0.41,meteohub,2013-08-01 14:30:00,
2013-08-01 15:42:00,66.6,63.9,29.69,SW,225,6.0,10.0,91,0.00,,,0.41,meteohub,2013-08-01 14:42:00,
2013-08-01 15:48:00,66.4,63.3,29.69,SSW,202,3.0,10.0,90,0.00,,,0.41,meteohub,2013-08-01 14:48:00,
2013-08-01 15:55:00,66.4,63.3,29.69,SSW,202,10.0,10.0,90,0.00,,,0.41,meteohub,2013-08-01 14:55:00,
2013-08-01 16:01:00,66.4,63.3,29.69,SSW,202,5.0,10.0,90,0.00,,,0.41,meteohub,2013-08-01 15:01:00,
2013-08-01 16:06:00,66.4,63.3,29.69,South,180,4.0,10.0,90,0.00,,,0.41,meteohub,2013-08-01 15:06:00,
2013-08-01 16:15:00,66.4,63.3,29.69,SSW,202,3.0,7.0,90,0.00,,,0.41,meteohub,2013-08-01 15:15:00,
2013-08-01 16:20:00,66.4,63.3,29.69,South,180,4.0,6.0,90,0.00,,,0.41,meteohub,2013-08-01 15:20:00,
2013-08-01 16:27:00,66.4,63.0,29.66,SSE,157,5.0,6.0,89,0.00,,,0.41,meteohub,2013-08-01 15:27:00,
2013-08-01 16:33:00,66.6,63.1,29.66,South,180,3.0,8.0,89,0.00,,,0.41,meteohub,2013-08-01 15:33:00,
2013-08-01 16:39:00,66.7,63.7,29.66,SSW,202,4.0,8.0,90,0.00,,,0.41,meteohub,2013-08-01 15:39:00,
2013-08-01 16:44:00,66.9,63.9,29.66,SSW,202,6.0,8.0,90,0.00,,,0.41,meteohub,2013-08-01 15:44:00,
2013-08-01 16:49:00,66.9,63.9,29.66,SSW,202,5.0,8.0,90,0.00,,,0.41,meteohub,2013-08-01 15:49:00,
2013-08-01 16:54:00,67.1,64.0,29.66,WSW,247,4.0,8.0,90,0.00,,,0.41,meteohub,2013-08-01 15:54:00,
2013-08-01 17:02:00,67.1,63.7,29.66,SSW,202,10.0,11.0,89,0.00,,,0.41,meteohub,2013-08-01 16:02:00,
2013-08-01 17:07:00,67.3,63.9,29.66,SSW,202,6.0,13.0,89,0.00,,,0.41,meteohub,2013-08-01 16:07:00,
2013-08-01 17:12:00,67.3,63.7,29.66,South,180,6.0,13.0,88,0.00,,,0.41,meteohub,2013-08-01 16:12:00,
2013-08-01 17:17:00,67.1,63.5,29.66,South,180,4.0,13.0,88,0.00,,,0.41,meteohub,2013-08-01 16:17:00,
2013-08-01 17:25:00,67.3,63.7,29.66,SSW,202,6.0,12.0,88,0.00,,,0.41,meteohub,2013-08-01 16:25:00,
2013-08-01 17:32:00,67.3,63.9,29.66,SSW,202,4.0,6.0,89,0.00,,,0.41,meteohub,2013-08-01 16:32:00,
2013-08-01 17:37:00,67.5,64.0,29.66,SSW,202,0.0,6.0,89,0.00,,,0.41,meteohub,2013-08-01 16:37:00,
2013-08-01 17:47:00,67.3,63.9,29.66,SW,225,2.0,9.0,89,0.00,,,0.41,meteohub,2013-08-01 16:47:00,
2013-08-01 17:53:00,67.5,63.9,29.66,SSW,202,6.0,9.0,88,0.00,,,0.41,meteohub,2013-08-01 16:53:00,
2013-08-01 18:00:00,67.5,63.5,29.66,SSW,202,5.0,10.0,87,0.00,,,0.41,meteohub,2013-08-01 17:00:00,
2013-08-01 18:06:00,67.5,63.5,29.66,SSE,157,6.0,10.0,87,0.00,,,0.41,meteohub,2013-08-01 17:06:00,
2013-08-01 18:13:00,67.6,64.0,29.66,South,180,0.0,10.0,88,0.00,,,0.41,meteohub,2013-08-01 17:13:00,
2013-08-01 18:20:00,68.2,64.2,29.66,South,180,0.0,6.0,87,0.00,,,0.41,meteohub,2013-08-01 17:20:00,
2013-08-01 18:26:00,68.2,63.9,29.66,SSE,157,9.0,9.0,86,0.00,,,0.41,meteohub,2013-08-01 17:26:00,
2013-08-01 18:31:00,68.4,63.7,29.66,SSE,157,6.0,9.0,85,0.00,,,0.41,meteohub,2013-08-01 17:31:00,
2013-08-01 18:37:00,68.5,63.9,29.66,South,180,8.0,9.0,85,0.00,,,0.41,meteohub,2013-08-01 17:37:00,
2013-08-01 18:42:00,68.7,64.0,29.66,SSW,202,4.0,8.0,85,0.00,,,0.41,meteohub,2013-08-01 17:42:00,
2013-08-01 18:49:00,68.9,64.2,29.66,West,270,3.0,8.0,85,0.00,,,0.41,meteohub,2013-08-01 17:49:00,
2013-08-01 18:55:00,68.7,63.7,29.66,South,180,6.0,8.0,84,0.00,,,0.41,meteohub,2013-08-01 17:55:00,
2013-08-01 19:07:00,68.7,63.3,29.66,East,90,3.0,8.0,83,0.00,,,0.41,meteohub,2013-08-01 18:07:00,
2013-08-01 19:12:00,68.5,62.8,29.63,SSE,157,3.0,8.0,82,0.00,,,0.41,meteohub,2013-08-01 18:12:00,
2013-08-01 19:17:00,68.5,62.8,29.63,SSE,157,3.0,5.0,82,0.00,,,0.41,meteohub,2013-08-01 18:17:00,
2013-08-01 19:22:00,68.4,62.6,29.66,SSW,202,5.0,6.0,82,0.00,,,0.41,meteohub,2013-08-01 18:22:00,
2013-08-01 19:27:00,68.2,62.4,29.66,SSW,202,4.0,7.0,82,0.00,,,0.41,meteohub,2013-08-01 18:27:00,
2013-08-01 19:34:00,68.0,62.6,29.66,SSE,157,2.0,7.0,83,0.00,,,0.41,meteohub,2013-08-01 18:34:00,
2013-08-01 19:42:00,67.6,63.0,29.63,SW,225,0.0,5.0,85,0.00,,,0.41,meteohub,2013-08-01 18:42:00,
2013-08-01 19:50:00,67.5,62.8,29.63,SE,135,0.0,3.0,85,0.00,,,0.41,meteohub,2013-08-01 18:50:00,
2013-08-01 19:55:00,67.3,63.0,29.66,South,180,0.0,4.0,86,0.00,,,0.41,meteohub,2013-08-01 18:55:00,
2013-08-01 20:01:00,67.1,62.8,29.66,East,90,2.0,4.0,86,0.00,,,0.41,meteohub,2013-08-01 19:01:00,
2013-08-01 20:07:00,67.1,62.8,29.63,ESE,112,3.0,4.0,86,0.00,,,0.41,meteohub,2013-08-01 19:07:00,
2013-08-01 20:12:00,67.1,63.1,29.63,ESE,112,3.0,4.0,87,0.00,,,0.41,meteohub,2013-08-01 19:12:00,
2013-08-01 20:18:00,67.1,63.1,29.63,East,90,3.0,4.0,87,0.00,,,0.41,meteohub,2013-08-01 19:18:00,
2013-08-01 20:23:00,66.9,63.0,29.63,East,90,6.0,6.0,87,0.00,,,0.41,meteohub,2013-08-01 19:23:00,
2013-08-01 20:29:00,66.9,63.0,29.63,ESE,112,6.0,6.0,87,0.00,,,0.41,meteohub,2013-08-01 19:29:00,
2013-08-01 20:35:00,66.7,63.1,29.63,East,90,4.0,7.0,88,0.00,,,0.41,meteohub,2013-08-01 19:35:00,
2013-08-01 20:40:00,66.6,63.0,29.63,ENE,67,3.0,7.0,88,0.00,,,0.41,meteohub,2013-08-01 19:40:00,
2013-08-01 20:45:00,66.4,62.8,29.63,East,90,3.0,6.0,88,0.00,,,0.41,meteohub,2013-08-01 19:45:00,
2013-08-01 20:50:00,66.2,62.6,29.63,NE,45,3.0,6.0,88,0.00,,,0.41,meteohub,2013-08-01 19:50:00,
2013-08-01 20:55:00,66.2,62.6,29.63,East,90,3.0,5.0,88,0.00,,,0.41,meteohub,2013-08-01 19:55:00,
2013-08-01 21:04:00,66.0,62.6,29.63,ENE,67,1.0,5.0,89,0.00,,,0.41,meteohub,2013-08-01 20:04:00,
2013-08-01 21:14:00,65.7,62.2,29.63,ENE,67,3.0,5.0,89,0.00,,,0.41,meteohub,2013-08-01 20:14:00,
2013-08-01 21:20:00,65.5,62.4,29.63,East,90,3.0,5.0,90,0.00,,,0.41,meteohub,2013-08-01 20:20:00,
2013-08-01 21:27:00,65.1,62.1,29.63,East,90,5.0,5.0,90,0.00,,,0.41,meteohub,2013-08-01 20:27:00,
2013-08-01 21:32:00,64.8,61.7,29.63,East,90,3.0,6.0,90,0.00,,,0.41,meteohub,2013-08-01 20:32:00,
2013-08-01 21:42:00,64.6,61.9,29.63,East,90,3.0,6.0,91,0.00,,,0.41,meteohub,2013-08-01 20:42:00,
2013-08-01 21:47:00,64.4,61.7,29.63,SE,135,3.0,5.0,91,0.00,,,0.41,meteohub,2013-08-01 20:47:00,
2013-08-01 21:53:00,64.2,61.9,29.63,East,90,1.0,5.0,92,0.00,,,0.41,meteohub,2013-08-01 20:53:00,
2013-08-01 21:58:00,64.0,61.7,29.63,NE,45,1.0,5.0,92,0.00,,,0.41,meteohub,2013-08-01 20:58:00,
2013-08-01 22:03:00,63.9,61.5,29.63,ENE,67,2.0,4.0,92,0.00,,,0.41,meteohub,2013-08-01 21:03:00,
2013-08-01 22:09:00,63.9,61.5,29.63,NE,45,1.0,3.0,92,0.00,,,0.41,meteohub,2013-08-01 21:09:00,
2013-08-01 22:14:00,63.5,61.2,29.63,ENE,67,0.0,3.0,92,0.00,,,0.41,meteohub,2013-08-01 21:14:00,
2013-08-01 22:19:00,63.3,61.0,29.63,East,90,2.0,3.0,92,0.00,,,0.41,meteohub,2013-08-01 21:19:00,
2013-08-01 22:25:00,63.3,61.0,29.63,East,90,4.0,4.0,92,0.00,,,0.41,meteohub,2013-08-01 21:25:00,
2013-08-01 22:33:00,63.1,61.2,29.63,ENE,67,4.0,5.0,93,0.00,,,0.41,meteohub,2013-08-01 21:33:00,
2013-08-01 22:38:00,63.0,61.0,29.63,ENE,67,3.0,5.0,93,0.00,,,0.41,meteohub,2013-08-01 21:38:00,
2013-08-01 22:43:00,63.0,61.0,29.63,East,90,3.0,4.0,93,0.00,,,0.41,meteohub,2013-08-01 21:43:00,
2013-08-01 22:50:00,62.8,60.8,29.63,East,90,2.0,4.0,93,0.00,,,0.41,meteohub,2013-08-01 21:50:00,
2013-08-01 22:57:00,62.6,60.8,29.63,ENE,67,3.0,4.0,94,0.00,,,0.41,meteohub,2013-08-01 21:57:00,
2013-08-01 23:02:00,62.6,60.8,29.63,East,90,3.0,4.0,94,0.00,,,0.41,meteohub,2013-08-01 22:02:00,
2013-08-01 23:09:00,62.4,60.6,29.63,ENE,67,3.0,4.0,94,0.00,,,0.41,meteohub,2013-08-01 22:09:00,
2013-08-01 23:14:00,62.4,60.6,29.63,West,270,0.0,4.0,94,0.00,,,0.41,meteohub,2013-08-01 22:14:00,
2013-08-01 23:22:00,62.2,60.4,29.63,West,270,0.0,3.0,94,0.00,,,0.41,meteohub,2013-08-01 22:22:00,
2013-08-01 23:29:00,62.2,60.8,29.63,West,270,0.0,0.0,95,0.00,,,0.41,meteohub,2013-08-01 22:29:00,
2013-08-01 23:35:00,62.2,60.8,29.63,West,270,0.0,0.0,95,0.00,,,0.41,meteohub,2013-08-01 22:35:00,
2013-08-01 23:42:00,62.2,60.8,29.63,WNW,292,1.0,0.0,95,0.00,,,0.41,meteohub,2013-08-01 22:42:00,
2013-08-01 23:47:00,62.2,60.8,29.63,WNW,292,1.0,3.0,95,0.00,,,0.41,meteohub,2013-08-01 22:47:00,
2013-08-01 23:53:00,62.1,60.6,29.63,WNW,292,0.0,3.0,95,0.00,,,0.41,meteohub,2013-08-01 22:53:00,
2013-08-01 23:59:00,62.1,60.6,29.63,WNW,292,0.0,3.0,95,0.00,,,0.41,meteohub,2013-08-01 22:59:00,